sensor_id;sensor_type;location;lat;lon;timestamp;pressure;altitude;pressure_sealevel;temperature;humidity
54042;BME280;41156;51.508;5.406;2024-02-21T00:00:47;102147.53;;;8.78;100.00
54042;BME280;41156;51.508;5.406;2024-02-21T00:03:47;102140.44;;;8.77;100.00
54042;BME280;41156;51.508;5.406;2024-02-21T00:06:48;102143.13;;;8.77;100.00
54042;BME280;41156;51.508;5.406;2024-02-21T00:09:48;102143.31;;;8.76;100.00
54042;BME280;41156;51.508;5.406;2024-02-21T00:12:49;102140.78;;;8.74;100.00
54042;BME280;41156;51.508;5.406;2024-02-21T00:15:49;102142.31;;;8.68;100.00
54042;BME280;41156;51.508;5.406;2024-02-21T00:18:49;102148.69;;;8.67;100.00
54042;BME280;41156;51.508;5.406;2024-02-21T00:21:50;102140.63;;;8.67;100.00
54042;BME280;41156;51.508;5.406;2024-02-21T00:24:50;102134.22;;;8.68;100.00
54042;BME280;41156;51.508;5.406;2024-02-21T00:27:50;102132.72;;;8.66;100.00
54042;BME280;41156;51.508;5.406;2024-02-21T00:30:50;102128.34;;;8.65;100.00
54042;BME280;41156;51.508;5.406;2024-02-21T00:33:53;102112.69;;;8.60;100.00
54042;BME280;41156;51.508;5.406;2024-02-21T00:36:53;102104.28;;;8.55;100.00
54042;BME280;41156;51.508;5.406;2024-02-21T00:39:54;102090.81;;;8.47;100.00
54042;BME280;41156;51.508;5.406;2024-02-21T00:42:54;102087.09;;;8.40;100.00
54042;BME280;41156;51.508;5.406;2024-02-21T00:45:54;102090.63;;;8.32;100.00
54042;BME280;41156;51.508;5.406;2024-02-21T00:48:55;102079.53;;;8.27;100.00
54042;BME280;41156;51.508;5.406;2024-02-21T00:51:55;102072.81;;;8.23;100.00
54042;BME280;41156;51.508;5.406;2024-02-21T00:54:55;102070.44;;;8.20;100.00
54042;BME280;41156;51.508;5.406;2024-02-21T00:57:56;102058.97;;;8.18;100.00
54042;BME280;41156;51.508;5.406;2024-02-21T01:00:56;102067.06;;;8.18;100.00
54042;BME280;41156;51.508;5.406;2024-02-21T01:03:56;102079.53;;;8.19;100.00
54042;BME280;41156;51.508;5.406;2024-02-21T01:06:57;102074.63;;;8.22;100.00
54042;BME280;41156;51.508;5.406;2024-02-21T01:09:57;102076.66;;;8.28;100.00
54042;BME280;41156;51.508;5.406;2024-02-21T01:12:57;102070.78;;;8.33;100.00
54042;BME280;41156;51.508;5.406;2024-02-21T01:15:57;102072.28;;;8.36;100.00
54042;BME280;41156;51.508;5.406;2024-02-21T01:18:58;102051.59;;;8.36;100.00
54042;BME280;41156;51.508;5.406;2024-02-21T01:21:58;102046.19;;;8.36;100.00
54042;BME280;41156;51.508;5.406;2024-02-21T01:24:58;102040.81;;;8.36;100.00
54042;BME280;41156;51.508;5.406;2024-02-21T01:27:58;102028.34;;;8.35;100.00
54042;BME280;41156;51.508;5.406;2024-02-21T01:30:59;102039.13;;;8.35;100.00
54042;BME280;41156;51.508;5.406;2024-02-21T01:33:59;102043.69;;;8.34;100.00
54042;BME280;41156;51.508;5.406;2024-02-21T01:36:59;102039.13;;;8.35;100.00
54042;BME280;41156;51.508;5.406;2024-02-21T01:40:04;102042.47;;;8.37;100.00
54042;BME280;41156;51.508;5.406;2024-02-21T01:43:15;102038.63;;;8.40;100.00
54042;BME280;41156;51.508;5.406;2024-02-21T01:46:16;102040.09;;;8.42;100.00
54042;BME280;41156;51.508;5.406;2024-02-21T01:49:16;102026.34;;;8.45;100.00
54042;BME280;41156;51.508;5.406;2024-02-21T01:52:17;102018.25;;;8.45;100.00
54042;BME280;41156;51.508;5.406;2024-02-21T01:55:17;102030.06;;;8.44;100.00
54042;BME280;41156;51.508;5.406;2024-02-21T01:58:18;102026.34;;;8.45;100.00
54042;BME280;41156;51.508;5.406;2024-02-21T02:01:19;102027.16;;;8.46;100.00
54042;BME280;41156;51.508;5.406;2024-02-21T02:04:20;102032.38;;;8.47;100.00
54042;BME280;41156;51.508;5.406;2024-02-21T02:07:20;102031.38;;;8.48;100.00
54042;BME280;41156;51.508;5.406;2024-02-21T02:10:20;102017.91;;;8.48;100.00
54042;BME280;41156;51.508;5.406;2024-02-21T02:13:21;102004.28;;;8.50;100.00
54042;BME280;41156;51.508;5.406;2024-02-21T02:16:21;102004.28;;;8.50;100.00
54042;BME280;41156;51.508;5.406;2024-02-21T02:19:22;102007.97;;;8.49;100.00
54042;BME280;41156;51.508;5.406;2024-02-21T02:22:28;101998.38;;;8.46;100.00
54042;BME280;41156;51.508;5.406;2024-02-21T02:25:28;102003.94;;;8.45;100.00
54042;BME280;41156;51.508;5.406;2024-02-21T02:28:29;101990.66;;;8.43;100.00
54042;BME280;41156;51.508;5.406;2024-02-21T02:31:29;101985.94;;;8.45;100.00
54042;BME280;41156;51.508;5.406;2024-02-21T02:34:29;101974.16;;;8.46;100.00
54042;BME280;41156;51.508;5.406;2024-02-21T02:37:30;101978.50;;;8.47;100.00
54042;BME280;41156;51.508;5.406;2024-02-21T02:40:32;101970.25;;;8.49;100.00
54042;BME280;41156;51.508;5.406;2024-02-21T02:43:33;101974.81;;;8.48;100.00
54042;BME280;41156;51.508;5.406;2024-02-21T02:46:33;101963.19;;;8.48;100.00
54042;BME280;41156;51.508;5.406;2024-02-21T02:49:34;101955.28;;;8.46;100.00
54042;BME280;41156;51.508;5.406;2024-02-21T02:52:34;101954.63;;;8.44;100.00
54042;BME280;41156;51.508;5.406;2024-02-21T02:55:34;101950.56;;;8.40;100.00
54042;BME280;41156;51.508;5.406;2024-02-21T02:58:35;101955.63;;;8.35;100.00
54042;BME280;41156;51.508;5.406;2024-02-21T03:01:36;101956.97;;;8.31;100.00
54042;BME280;41156;51.508;5.406;2024-02-21T03:04:39;101942.84;;;8.29;100.00
54042;BME280;41156;51.508;5.406;2024-02-21T03:07:39;101948.22;;;8.29;100.00
54042;BME280;41156;51.508;5.406;2024-02-21T03:10:40;101943.19;;;8.26;100.00
54042;BME280;41156;51.508;5.406;2024-02-21T03:13:42;101955.31;;;8.30;100.00
54042;BME280;41156;51.508;5.406;2024-02-21T03:16:42;101946.03;;;8.32;100.00
54042;BME280;41156;51.508;5.406;2024-02-21T03:19:42;101945.03;;;8.33;100.00
54042;BME280;41156;51.508;5.406;2024-02-21T03:22:42;101933.06;;;8.36;100.00
54042;BME280;41156;51.508;5.406;2024-02-21T03:25:43;101929.00;;;8.40;100.00
54042;BME280;41156;51.508;5.406;2024-02-21T03:28:44;101920.75;;;8.42;100.00
54042;BME280;41156;51.508;5.406;2024-02-21T03:31:46;101912.53;;;8.43;100.00
54042;BME280;41156;51.508;5.406;2024-02-21T03:34:46;101912.53;;;8.43;100.00
54042;BME280;41156;51.508;5.406;2024-02-21T03:37:47;101905.13;;;8.45;100.00
54042;BME280;41156;51.508;5.406;2024-02-21T03:40:47;101893.50;;;8.45;100.00
54042;BME280;41156;51.508;5.406;2024-02-21T03:43:47;101887.09;;;8.46;100.00
54042;BME280;41156;51.508;5.406;2024-02-21T03:46:48;101894.00;;;8.48;100.00
54042;BME280;41156;51.508;5.406;2024-02-21T03:49:48;101896.69;;;8.48;100.00
54042;BME280;41156;51.508;5.406;2024-02-21T03:52:48;101885.91;;;8.48;100.00
54042;BME280;41156;51.508;5.406;2024-02-21T03:55:48;101880.53;;;8.48;100.00
54042;BME280;41156;51.508;5.406;2024-02-21T03:58:49;101877.84;;;8.48;100.00
54042;BME280;41156;51.508;5.406;2024-02-21T04:01:53;101874.13;;;8.49;100.00
54042;BME280;41156;51.508;5.406;2024-02-21T04:04:53;101877.66;;;8.50;100.00
54042;BME280;41156;51.508;5.406;2024-02-21T04:07:54;101877.50;;;8.51;100.00
54042;BME280;41156;51.508;5.406;2024-02-21T04:10:54;101871.25;;;8.51;100.00
54042;BME280;41156;51.508;5.406;2024-02-21T04:13:54;101882.22;;;8.49;100.00
54042;BME280;41156;51.508;5.406;2024-02-21T04:16:55;101881.53;;;8.47;100.00
54042;BME280;41156;51.508;5.406;2024-02-21T04:20:04;101874.47;;;8.46;100.00
54042;BME280;41156;51.508;5.406;2024-02-21T04:23:05;101882.22;;;8.41;100.00
54042;BME280;41156;51.508;5.406;2024-02-21T04:26:05;101875.31;;;8.39;100.00
54042;BME280;41156;51.508;5.406;2024-02-21T04:29:05;101882.91;;;8.35;100.00
54042;BME280;41156;51.508;5.406;2024-02-21T04:32:06;101884.09;;;8.32;100.00
54042;BME280;41156;51.508;5.406;2024-02-21T04:35:07;101869.97;;;8.30;100.00
54042;BME280;41156;51.508;5.406;2024-02-21T04:38:07;101873.31;;;8.32;100.00
54042;BME280;41156;51.508;5.406;2024-02-21T04:41:07;101876.88;;;8.33;100.00
54042;BME280;41156;51.508;5.406;2024-02-21T04:44:08;101873.13;;;8.34;100.00
54042;BME280;41156;51.508;5.406;2024-02-21T04:47:09;101870.28;;;8.36;100.00
54042;BME280;41156;51.508;5.406;2024-02-21T04:50:09;101863.88;;;8.37;100.00
54042;BME280;41156;51.508;5.406;2024-02-21T04:53:09;101858.66;;;8.35;100.00
54042;BME280;41156;51.508;5.406;2024-02-21T04:56:10;101853.94;;;8.37;100.00
54042;BME280;41156;51.508;5.406;2024-02-21T04:59:10;101859.31;;;8.37;100.00
54042;BME280;41156;51.508;5.406;2024-02-21T05:02:11;101856.47;;;8.39;100.00
54042;BME280;41156;51.508;5.406;2024-02-21T05:05:11;101851.06;;;8.39;100.00
54042;BME280;41156;51.508;5.406;2024-02-21T05:08:11;101846.03;;;8.36;100.00
54042;BME280;41156;51.508;5.406;2024-02-21T05:11:12;101848.72;;;8.36;100.00
54042;BME280;41156;51.508;5.406;2024-02-21T05:14:12;101836.13;;;8.36;100.00
54042;BME280;41156;51.508;5.406;2024-02-21T05:17:12;101837.94;;;8.36;100.00
54042;BME280;41156;51.508;5.406;2024-02-21T05:20:13;101836.13;;;8.36;100.00
54042;BME280;41156;51.508;5.406;2024-02-21T05:23:13;101824.50;;;8.36;100.00
54042;BME280;41156;51.508;5.406;2024-02-21T05:26:20;101810.19;;;8.35;100.00
54042;BME280;41156;51.508;5.406;2024-02-21T05:29:20;101808.50;;;8.34;100.00
54042;BME280;41156;51.508;5.406;2024-02-21T05:32:20;101800.78;;;8.31;100.00
54042;BME280;41156;51.508;5.406;2024-02-21T05:35:25;101802.81;;;8.29;100.00
54042;BME280;41156;51.508;5.406;2024-02-21T05:38:26;101799.13;;;8.30;100.00
54042;BME280;41156;51.508;5.406;2024-02-21T05:41:26;101798.06;;;8.31;100.00
54042;BME280;41156;51.508;5.406;2024-02-21T05:44:27;101798.94;;;8.31;100.00
54042;BME280;41156;51.508;5.406;2024-02-21T05:47:27;101794.38;;;8.32;100.00
54042;BME280;41156;51.508;5.406;2024-02-21T05:50:27;101786.31;;;8.32;100.00
54042;BME280;41156;51.508;5.406;2024-02-21T05:53:28;101785.13;;;8.34;100.00
54042;BME280;41156;51.508;5.406;2024-02-21T05:56:28;101780.56;;;8.35;100.00
54042;BME280;41156;51.508;5.406;2024-02-21T05:59:29;101779.56;;;8.36;100.00
54042;BME280;41156;51.508;5.406;2024-02-21T06:02:30;101780.56;;;8.35;100.00
54042;BME280;41156;51.508;5.406;2024-02-21T06:05:31;101778.72;;;8.36;100.00
54042;BME280;41156;51.508;5.406;2024-02-21T06:08:31;101766.09;;;8.36;100.00
54042;BME280;41156;51.508;5.406;2024-02-21T06:11:32;101761.53;;;8.37;100.00
54042;BME280;41156;51.508;5.406;2024-02-21T06:14:32;101749.94;;;8.36;100.00
54042;BME280;41156;51.508;5.406;2024-02-21T06:17:32;101744.56;;;8.36;100.00
54042;BME280;41156;51.508;5.406;2024-02-21T06:20:34;101748.25;;;8.35;100.00
54042;BME280;41156;51.508;5.406;2024-02-21T06:23:36;101739.34;;;8.34;100.00
54042;BME280;41156;51.508;5.406;2024-02-21T06:26:37;101753.63;;;8.35;100.00
54042;BME280;41156;51.508;5.406;2024-02-21T06:29:37;101757.34;;;8.34;100.00
54042;BME280;41156;51.508;5.406;2024-02-21T06:32:38;101747.59;;;8.33;100.00
54042;BME280;41156;51.508;5.406;2024-02-21T06:35:38;101753.00;;;8.33;100.00
54042;BME280;41156;51.508;5.406;2024-02-21T06:38:41;101754.81;;;8.32;100.00
54042;BME280;41156;51.508;5.406;2024-02-21T06:41:41;101755.69;;;8.33;100.00
54042;BME280;41156;51.508;5.406;2024-02-21T06:44:41;101753.00;;;8.33;100.00
54042;BME280;41156;51.508;5.406;2024-02-21T06:47:43;101756.69;;;8.32;100.00
54042;BME280;41156;51.508;5.406;2024-02-21T06:50:43;101752.31;;;8.31;100.00
54042;BME280;41156;51.508;5.406;2024-02-21T06:53:44;101755.00;;;8.31;100.00
54042;BME280;41156;51.508;5.406;2024-02-21T06:56:44;101760.38;;;8.31;100.00
54042;BME280;41156;51.508;5.406;2024-02-21T06:59:44;101756.69;;;8.32;100.00
54042;BME280;41156;51.508;5.406;2024-02-21T07:02:45;101757.34;;;8.34;100.00
54042;BME280;41156;51.508;5.406;2024-02-21T07:05:45;101753.81;;;8.33;100.00
54042;BME280;41156;51.508;5.406;2024-02-21T07:08:45;101747.59;;;8.33;100.00
54042;BME280;41156;51.508;5.406;2024-02-21T07:11:46;101747.41;;;8.34;100.00
54042;BME280;41156;51.508;5.406;2024-02-21T07:14:46;101742.03;;;8.34;100.00
54042;BME280;41156;51.508;5.406;2024-02-21T07:17:46;101733.78;;;8.36;100.00
54042;BME280;41156;51.508;5.406;2024-02-21T07:20:46;101730.06;;;8.37;100.00
54042;BME280;41156;51.508;5.406;2024-02-21T07:23:47;101736.31;;;8.38;100.00
54042;BME280;41156;51.508;5.406;2024-02-21T07:26:47;101730.91;;;8.38;100.00
54042;BME280;41156;51.508;5.406;2024-02-21T07:29:47;101730.53;;;8.41;100.00
54042;BME280;41156;51.508;5.406;2024-02-21T07:32:49;101726.84;;;8.42;100.00
54042;BME280;41156;51.508;5.406;2024-02-21T07:35:50;101715.91;;;8.43;100.00
54042;BME280;41156;51.508;5.406;2024-02-21T07:38:51;101714.69;;;8.46;100.00
54042;BME280;41156;51.508;5.406;2024-02-21T07:41:51;101706.09;;;8.50;100.00
54042;BME280;41156;51.508;5.406;2024-02-21T07:44:51;101703.38;;;8.50;100.00
54042;BME280;41156;51.508;5.406;2024-02-21T07:47:52;101693.28;;;8.52;100.00
54042;BME280;41156;51.508;5.406;2024-02-21T07:50:52;101688.38;;;8.56;100.00
54042;BME280;41156;51.508;5.406;2024-02-21T07:53:52;101676.38;;;8.59;100.00
54042;BME280;41156;51.508;5.406;2024-02-21T07:56:53;101675.38;;;8.60;100.00
54042;BME280;41156;51.508;5.406;2024-02-21T07:59:53;101669.63;;;8.63;100.00
54042;BME280;41156;51.508;5.406;2024-02-21T08:02:54;101667.78;;;8.63;100.00
54042;BME280;41156;51.508;5.406;2024-02-21T08:05:54;101678.38;;;8.65;100.00
54042;BME280;41156;51.508;5.406;2024-02-21T08:08:54;101666.38;;;8.67;100.00
54042;BME280;41156;51.508;5.406;2024-02-21T08:11:57;101667.88;;;8.70;100.00
54042;BME280;41156;51.508;5.406;2024-02-21T08:14:57;101663.78;;;8.74;100.00
54042;BME280;41156;51.508;5.406;2024-02-21T08:17:58;101654.50;;;8.77;100.00
54042;BME280;41156;51.508;5.406;2024-02-21T08:21:01;101647.53;;;8.82;100.00
54042;BME280;41156;51.508;5.406;2024-02-21T08:24:01;101644.31;;;8.87;100.00
54042;BME280;41156;51.508;5.406;2024-02-21T08:27:02;101632.69;;;8.86;100.00
54042;BME280;41156;51.508;5.406;2024-02-21T08:30:03;101626.25;;;8.87;100.00
54042;BME280;41156;51.508;5.406;2024-02-21T08:33:03;101625.72;;;8.92;100.00
54042;BME280;41156;51.508;5.406;2024-02-21T08:36:04;101615.78;;;8.93;100.00
54042;BME280;41156;51.508;5.406;2024-02-21T08:39:04;101613.75;;;8.95;100.00
54042;BME280;41156;51.508;5.406;2024-02-21T08:42:05;101610.50;;;8.99;100.00
54042;BME280;41156;51.508;5.406;2024-02-21T08:45:05;101611.41;;;9.06;100.00
54042;BME280;41156;51.508;5.406;2024-02-21T08:48:06;101606.31;;;9.12;100.00
54042;BME280;41156;51.508;5.406;2024-02-21T08:51:07;101591.59;;;9.14;100.00
54042;BME280;41156;51.508;5.406;2024-02-21T08:54:07;101583.13;;;9.17;100.00
54042;BME280;41156;51.508;5.406;2024-02-21T08:57:08;101582.56;;;9.22;100.00
54042;BME280;41156;51.508;5.406;2024-02-21T09:00:08;101578.88;;;9.23;100.00
54042;BME280;41156;51.508;5.406;2024-02-21T09:03:13;101568.91;;;9.23;100.00
54042;BME280;41156;51.508;5.406;2024-02-21T09:06:13;101577.91;;;9.16;100.00
54042;BME280;41156;51.508;5.406;2024-02-21T09:09:14;101575.22;;;9.16;100.00
54042;BME280;41156;51.508;5.406;2024-02-21T09:12:14;101579.34;;;9.12;100.00
54042;BME280;41156;51.508;5.406;2024-02-21T09:15:15;101576.19;;;9.08;100.00
54042;BME280;41156;51.508;5.406;2024-02-21T09:18:16;101572.34;;;9.02;100.00
54042;BME280;41156;51.508;5.406;2024-02-21T09:21:19;101565.50;;;9.00;100.00
54042;BME280;41156;51.508;5.406;2024-02-21T09:24:19;101563.53;;;8.94;100.00
54042;BME280;41156;51.508;5.406;2024-02-21T09:27:19;101561.88;;;8.93;100.00
54042;BME280;41156;51.508;5.406;2024-02-21T09:30:20;101555.63;;;8.92;100.00
54042;BME280;41156;51.508;5.406;2024-02-21T09:33:20;101554.34;;;8.88;100.00
54042;BME280;41156;51.508;5.406;2024-02-21T09:36:20;101546.44;;;8.86;100.00
54042;BME280;41156;51.508;5.406;2024-02-21T09:39:21;101540.69;;;8.89;100.00
54042;BME280;41156;51.508;5.406;2024-02-21T09:42:21;101528.50;;;8.94;100.00
54042;BME280;41156;51.508;5.406;2024-02-21T09:45:24;101520.03;;;8.97;100.00
54042;BME280;41156;51.508;5.406;2024-02-21T09:51:43;101499.50;;;8.96;100.00
54042;BME280;41156;51.508;5.406;2024-02-21T09:54:45;101500.16;;;8.98;100.00
54042;BME280;41156;51.508;5.406;2024-02-21T09:57:46;101491.88;;;8.99;100.00
54042;BME280;41156;51.508;5.406;2024-02-21T10:00:47;101475.97;;;9.04;100.00
54042;BME280;41156;51.508;5.406;2024-02-21T10:03:47;101472.94;;;9.14;100.00
54042;BME280;41156;51.508;5.406;2024-02-21T10:06:48;101470.44;;;9.28;100.00
54042;BME280;41156;51.508;5.406;2024-02-21T10:09:48;101463.63;;;9.32;100.00
54042;BME280;41156;51.508;5.406;2024-02-21T10:12:50;101447.50;;;9.38;100.00
54042;BME280;41156;51.508;5.406;2024-02-21T10:16:01;101449.06;;;9.48;100.00
54042;BME280;41156;51.508;5.406;2024-02-21T10:19:01;101457.22;;;9.54;100.00
54042;BME280;41156;51.508;5.406;2024-02-21T10:22:05;101429.63;;;9.59;100.00
54042;BME280;41156;51.508;5.406;2024-02-21T10:25:11;101413.06;;;9.62;100.00
54042;BME280;41156;51.508;5.406;2024-02-21T10:28:12;101394.59;;;9.66;100.00
54042;BME280;41156;51.508;5.406;2024-02-21T10:31:26;101389.47;;;9.71;100.00
54042;BME280;41156;51.508;5.406;2024-02-21T10:34:27;101384.78;;;9.79;100.00
54042;BME280;41156;51.508;5.406;2024-02-21T10:37:27;101364.44;;;9.84;100.00
54042;BME280;41156;51.508;5.406;2024-02-21T10:40:29;101359.47;;;9.87;100.00
54042;BME280;41156;51.508;5.406;2024-02-21T10:43:37;101349.91;;;9.85;100.00
54042;BME280;41156;51.508;5.406;2024-02-21T10:46:38;101317.75;;;9.90;100.00
54042;BME280;41156;51.508;5.406;2024-02-21T10:49:41;101320.50;;;9.96;100.00
54042;BME280;41156;51.508;5.406;2024-02-21T10:52:51;101322.19;;;10.04;100.00
54042;BME280;41156;51.508;5.406;2024-02-21T10:56:00;101323.47;;;10.08;100.00
54042;BME280;41156;51.508;5.406;2024-02-21T10:59:04;101334.06;;;10.10;100.00
54042;BME280;41156;51.508;5.406;2024-02-21T11:02:05;101340.50;;;10.09;100.00
54042;BME280;41156;51.508;5.406;2024-02-21T11:05:06;101339.47;;;10.10;100.00
54042;BME280;41156;51.508;5.406;2024-02-21T11:08:06;101340.50;;;10.09;100.00
54042;BME280;41156;51.508;5.406;2024-02-21T11:11:07;101329.69;;;10.09;100.00
54042;BME280;41156;51.508;5.406;2024-02-21T11:14:09;101331.38;;;10.10;100.00
54042;BME280;41156;51.508;5.406;2024-02-21T11:17:16;101325.16;;;10.09;100.00
54042;BME280;41156;51.508;5.406;2024-02-21T11:20:17;101297.72;;;10.12;100.00
54042;BME280;41156;51.508;5.406;2024-02-21T11:23:25;101295.03;;;10.19;100.00
54042;BME280;41156;51.508;5.406;2024-02-21T11:26:28;101295.72;;;10.21;100.00
54042;BME280;41156;51.508;5.406;2024-02-21T11:29:30;101281.16;;;10.22;100.00
54042;BME280;41156;51.508;5.406;2024-02-21T11:32:30;101268.53;;;10.29;100.00
54042;BME280;41156;51.508;5.406;2024-02-21T11:35:32;101264.44;;;10.47;100.00
54042;BME280;41156;51.508;5.406;2024-02-21T11:38:33;101274.25;;;10.61;100.00
54042;BME280;41156;51.508;5.406;2024-02-21T11:41:34;101264.28;;;10.68;100.00
54042;BME280;41156;51.508;5.406;2024-02-21T11:44:35;101275.91;;;10.69;100.00
54042;BME280;41156;51.508;5.406;2024-02-21T11:47:37;101267.59;;;10.70;100.00
54042;BME280;41156;51.508;5.406;2024-02-21T11:50:39;101252.22;;;10.58;100.00
54042;BME280;41156;51.508;5.406;2024-02-21T11:53:39;101216.03;;;10.59;100.00
54042;BME280;41156;51.508;5.406;2024-02-21T11:56:41;101209.41;;;10.68;100.00
54042;BME280;41156;51.508;5.406;2024-02-21T11:59:41;101186.94;;;10.81;100.00
54042;BME280;41156;51.508;5.406;2024-02-21T12:02:42;101187.56;;;10.96;100.00
54042;BME280;41156;51.508;5.406;2024-02-21T12:05:43;101179.44;;;11.03;100.00
54042;BME280;41156;51.508;5.406;2024-02-21T12:08:43;101175.47;;;11.12;100.00
54042;BME280;41156;51.508;5.406;2024-02-21T12:11:44;101160.47;;;11.23;100.00
54042;BME280;41156;51.508;5.406;2024-02-21T12:14:46;101157.97;;;11.28;100.00
54042;BME280;41156;51.508;5.406;2024-02-21T12:17:46;101155.66;;;11.32;100.00
54042;BME280;41156;51.508;5.406;2024-02-21T12:20:48;101136.50;;;11.40;100.00
54042;BME280;41156;51.508;5.406;2024-02-21T12:23:48;101129.19;;;11.47;100.00
54042;BME280;41156;51.508;5.406;2024-02-21T12:26:49;101122.94;;;11.46;100.00
54042;BME280;41156;51.508;5.406;2024-02-21T12:29:50;101109.81;;;11.50;100.00
54042;BME280;41156;51.508;5.406;2024-02-21T12:32:50;101115.22;;;11.50;100.00
54042;BME280;41156;51.508;5.406;2024-02-21T12:35:51;101106.06;;;11.51;100.00
54042;BME280;41156;51.508;5.406;2024-02-21T12:38:51;101103.97;;;11.53;100.00
54042;BME280;41156;51.508;5.406;2024-02-21T12:41:51;101088.19;;;11.43;100.00
54042;BME280;41156;51.508;5.406;2024-02-21T12:44:52;101066.56;;;11.37;100.00
54042;BME280;41156;51.508;5.406;2024-02-21T12:47:53;101053.47;;;11.34;100.00
54042;BME280;41156;51.508;5.406;2024-02-21T12:50:53;101037.84;;;11.36;100.00
54042;BME280;41156;51.508;5.406;2024-02-21T12:53:53;101032.06;;;11.25;100.00
54042;BME280;41156;51.508;5.406;2024-02-21T12:56:54;101030.69;;;11.16;100.00
54042;BME280;41156;51.508;5.406;2024-02-21T12:59:55;101025.06;;;11.18;100.00
54042;BME280;41156;51.508;5.406;2024-02-21T13:02:55;101007.16;;;11.17;100.00
54042;BME280;41156;51.508;5.406;2024-02-21T13:05:55;101001.75;;;11.17;100.00
54042;BME280;41156;51.508;5.406;2024-02-21T13:08:55;101011.72;;;11.23;100.00
54042;BME280;41156;51.508;5.406;2024-02-21T13:11:56;101010.44;;;11.25;100.00
54042;BME280;41156;51.508;5.406;2024-02-21T13:14:56;100993.59;;;11.23;100.00
54042;BME280;41156;51.508;5.406;2024-02-21T13:17:56;100997.56;;;11.21;100.00
54042;BME280;41156;51.508;5.406;2024-02-21T13:20:57;100989.00;;;11.24;100.00
54042;BME280;41156;51.508;5.406;2024-02-21T13:23:58;100994.41;;;11.24;100.00
54042;BME280;41156;51.508;5.406;2024-02-21T13:26:58;100996.31;;;11.23;100.00
54042;BME280;41156;51.508;5.406;2024-02-21T13:29:59;100988.41;;;11.22;100.00
54042;BME280;41156;51.508;5.406;2024-02-21T13:33:01;100977.59;;;11.15;100.00
54042;BME280;41156;51.508;5.406;2024-02-21T13:36:03;100967.22;;;11.12;100.00
54042;BME280;41156;51.508;5.406;2024-02-21T13:39:04;100952.06;;;11.11;100.00
54042;BME280;41156;51.508;5.406;2024-02-21T13:42:05;100947.47;;;11.11;100.00
54042;BME280;41156;51.508;5.406;2024-02-21T13:45:06;100927.31;;;11.07;100.00
54042;BME280;41156;51.508;5.406;2024-02-21T13:48:07;100922.75;;;11.08;100.00
54042;BME280;41156;51.508;5.406;2024-02-21T13:51:10;100918.97;;;11.09;100.00
54042;BME280;41156;51.508;5.406;2024-02-21T13:54:11;100911.91;;;11.08;100.00
54042;BME280;41156;51.508;5.406;2024-02-21T13:57:14;100890.72;;;11.05;100.00
54042;BME280;41156;51.508;5.406;2024-02-21T14:00:15;100894.06;;;11.00;100.00
54042;BME280;41156;51.508;5.406;2024-02-21T14:03:15;100896.16;;;10.98;100.00
54042;BME280;41156;51.508;5.406;2024-02-21T14:06:16;100887.88;;;10.93;100.00
54042;BME280;41156;51.508;5.406;2024-02-21T14:09:17;100890.78;;;10.91;100.00
54042;BME280;41156;51.508;5.406;2024-02-21T14:12:17;100873.75;;;10.91;100.00
54042;BME280;41156;51.508;5.406;2024-02-21T14:15:20;100850.88;;;10.87;100.00
54042;BME280;41156;51.508;5.406;2024-02-21T14:18:20;100850.06;;;10.86;100.00
54042;BME280;41156;51.508;5.406;2024-02-21T14:21:21;100841.34;;;10.84;100.00
54042;BME280;41156;51.508;5.406;2024-02-21T14:24:25;100830.34;;;10.79;100.00
54042;BME280;41156;51.508;5.406;2024-02-21T14:27:25;100816.84;;;10.79;100.00
54042;BME280;41156;51.508;5.406;2024-02-21T14:30:26;100811.81;;;10.83;100.00
54042;BME280;41156;51.508;5.406;2024-02-21T14:33:27;100808.09;;;10.77;100.00
54042;BME280;41156;51.508;5.406;2024-02-21T14:36:27;100790.88;;;10.71;100.00
54042;BME280;41156;51.508;5.406;2024-02-21T14:39:27;100776.97;;;10.68;100.00
54042;BME280;41156;51.508;5.406;2024-02-21T14:42:28;100768.69;;;10.63;100.00
54042;BME280;41156;51.508;5.406;2024-02-21T14:45:28;100750.44;;;10.58;100.00
54042;BME280;41156;51.508;5.406;2024-02-21T14:48:28;100735.28;;;10.50;100.00
54042;BME280;41156;51.508;5.406;2024-02-21T14:51:29;100729.94;;;10.44;100.00
54042;BME280;41156;51.508;5.406;2024-02-21T14:54:30;100720.84;;;10.38;100.00
54042;BME280;41156;51.508;5.406;2024-02-21T14:57:30;100714.41;;;10.32;100.00
54042;BME280;41156;51.508;5.406;2024-02-21T15:00:31;100711.28;;;10.29;100.00
54042;BME280;41156;51.508;5.406;2024-02-21T15:03:31;100702.41;;;10.22;100.00
54042;BME280;41156;51.508;5.406;2024-02-21T15:06:32;100700.75;;;10.14;100.00
54042;BME280;41156;51.508;5.406;2024-02-21T15:09:32;100694.16;;;10.10;100.00
54042;BME280;41156;51.508;5.406;2024-02-21T15:12:32;100685.03;;;10.04;100.00
54042;BME280;41156;51.508;5.406;2024-02-21T15:15:33;100673.66;;;9.95;100.00
54042;BME280;41156;51.508;5.406;2024-02-21T15:18:33;100667.47;;;9.88;100.00
54042;BME280;41156;51.508;5.406;2024-02-21T15:21:33;100664.41;;;9.78;100.00
54042;BME280;41156;51.508;5.406;2024-02-21T15:24:34;100651.34;;;9.68;100.00
54042;BME280;41156;51.508;5.406;2024-02-21T15:27:34;100655.97;;;9.61;100.00
54042;BME280;41156;51.508;5.406;2024-02-21T15:30:36;100646.84;;;9.55;100.00
54042;BME280;41156;51.508;5.406;2024-02-21T15:33:36;100635.47;;;9.47;100.00
54042;BME280;41156;51.508;5.406;2024-02-21T15:36:36;100621.78;;;9.41;100.00
54042;BME280;41156;51.508;5.406;2024-02-21T15:39:36;100620.31;;;9.39;100.00
54042;BME280;41156;51.508;5.406;2024-02-21T15:42:37;100599.63;;;9.33;100.00
54042;BME280;41156;51.508;5.406;2024-02-21T15:45:38;100581.38;;;9.28;100.00